Main page
METAR-TAF:

METAR-TAF

Airports :

Cassidy International Airport

Kiritimati, Kiribati

latitude: 01-59N, longitude: 157-29W, elevation: 3 m

Current weather observation

The report was made 52 minutes ago, at 16:00 UTC
Wind 3 kt from the East/Southeast
Temperature 25°C
Humidity 83%
Pressure 1013 hPa
Visibility 10 km or more
Scattered clouds at a height of 2000 ft

METAR: PLCH 281600Z 12003KT 9999 SCT020 25/22 Q1013

Time: 06:52 (16:52 UTC)

Forecast

The report was made 5 hours and 38 minutes ago, at 11:14 UTC
Forecast valid from 28 at 12 UTC to 29 at 12 UTC
Wind 5 kt from the East/Southeast
Visibility 10 km or more
Few clouds at a height of 2000 ft

TAF: PLCH 281114Z 2812/2912 11005KT 9999 FEW020

Weather observations and forecasts of more than 4000 airports (METAR and TAF reports).

The available stations are represented by yellow and red dots on the map.

Hover mouse over dot to see the name of the station.

Then click to see weather observations and forecasts.

To change the map : click on the green buttons with a black cross to zoom in, on the green button with a dash to zoom out, or on the green arrows for adjacent maps.


METAR-TAF: